Millwood, Missouri
Current Conditions -  °F | °C
As of 9:54 AM on Thursday 29 Jan 2015 (Local Time) from KSET Reporting Station
Overcast Overcast  
Wind Chill: -2°   Ceiling: 2400
Heat Index:   Visibility: 9mi
Dew Point: -1°   Wind: 21mph
Humidity: 73%   Direction: 310°NW
Pressure: 30.11"   Gusts: 33mph
Location:  39.1404°N, 91.0631°W
Report Text: KSET 291554Z AUTO 31018G29KT 9SM OVC024 04/M01 A3011 RMK AO2 PK WND 31032/1510 SLP197 T00391006
Loading
Personal Weather Stations






























Interactive Weather Map New forecast layout! Learn more

10-Day Weather Forecast

Advertisements
Track Severe Weather on mobile